Time;durP1;ratioP1;P1;durP2;ratioP2;P2;SDS_P1;SDS_P2;PMS_P1;PMS_P2;Temp;Humidity;BMP_temperature;BMP_pressure;BME280_temperature;BME280_humidity;BME280_pressure;Samples;Min_cycle;Max_cycle;Signal;HPM_P1;HPM_P2
2022/10/15 00:00:03;;;;;;;7.05;4.97;;;;;;;10.72;94.29;100660.66;5021198;28;20038;-77
2022/10/15 00:02:29;;;;;;;18.33;5.20;;;;;;;10.68;94.18;100665.97;5012683;28;20044;-77
2022/10/15 00:04:54;;;;;;;67.90;6.15;;;;;;;10.64;94.27;100667.81;5014632;28;20029;-78
2022/10/15 00:07:19;;;;;;;48.95;5.15;;;;;;;10.59;94.36;100665.34;5012351;28;20389;-77
2022/10/15 00:09:45;;;;;;;30.52;5.43;;;;;;;10.55;94.70;100671.53;5013936;28;20025;-77
2022/10/15 00:12:10;;;;;;;30.80;5.47;;;;;;;10.54;95.14;100675.03;5014226;28;20973;-77
2022/10/15 00:14:35;;;;;;;24.58;5.45;;;;;;;10.53;95.47;100670.72;5012554;28;20101;-77
2022/10/15 00:17:00;;;;;;;24.45;5.90;;;;;;;10.56;95.73;100667.22;5013669;28;20353;-77
2022/10/15 00:19:26;;;;;;;16.63;5.97;;;;;;;10.56;96.04;100669.81;5013487;28;20464;-77
2022/10/15 00:21:51;;;;;;;18.13;6.45;;;;;;;10.56;95.95;100659.41;5016074;28;20039;-77
2022/10/15 00:24:18;;;;;;;8.98;6.10;;;;;;;10.54;95.93;100661.19;5019710;28;20054;-77
2022/10/15 00:26:43;;;;;;;24.05;6.53;;;;;;;10.52;95.81;100662.97;5014940;28;20029;-77
2022/10/15 00:29:08;;;;;;;9.85;6.25;;;;;;;10.52;95.95;100669.03;5019100;28;20029;-78
2022/10/15 00:31:34;;;;;;;13.65;5.93;;;;;;;10.49;95.82;100671.72;5015573;28;20041;-77
2022/10/15 00:34:00;;;;;;;9.13;6.82;;;;;;;10.50;96.08;100672.56;5011488;28;20064;-77
2022/10/15 00:36:29;;;;;;;11.55;7.88;;;;;;;10.51;96.55;100671.69;5018437;28;20104;-77
2022/10/15 00:38:55;;;;;;;12.52;8.25;;;;;;;10.56;97.06;100669.81;5012862;28;20045;-77
2022/10/15 00:41:23;;;;;;;16.35;8.55;;;;;;;10.61;97.53;100673.97;5016453;28;20044;-77
2022/10/15 00:43:52;;;;;;;15.57;10.38;;;;;;;10.64;97.92;100670.44;5014596;28;20040;-77
2022/10/15 00:46:25;;;;;;;16.42;10.73;;;;;;;10.71;98.31;100673.69;5012484;28;20069;-77
2022/10/15 00:48:59;;;;;;;14.98;10.57;;;;;;;10.75;98.53;100675.31;5011907;28;20030;-77
2022/10/15 00:51:29;;;;;;;17.17;11.40;;;;;;;10.78;98.48;100680.44;5013557;28;20072;-77
2022/10/15 00:53:54;;;;;;;17.08;11.35;;;;;;;10.82;98.83;100676.00;5000910;28;20037;-78
2022/10/15 00:56:23;;;;;;;19.55;11.82;;;;;;;10.85;98.83;100679.34;5014033;28;20533;-78
2022/10/15 00:58:51;;;;;;;18.02;11.57;;;;;;;10.89;99.05;100682.72;5016321;28;20034;-77
2022/10/15 01:01:16;;;;;;;21.30;11.88;;;;;;;10.92;99.14;100670.47;5013585;28;20025;-77
2022/10/15 01:03:41;;;;;;;18.25;11.32;;;;;;;10.95;99.11;100674.72;5013627;28;20064;-77
2022/10/15 01:06:07;;;;;;;19.52;12.10;;;;;;;10.98;99.62;100673.81;5013811;28;20036;-77
2022/10/15 01:08:33;;;;;;;19.30;12.02;;;;;;;10.99;99.47;100673.75;5013610;28;20033;-77
2022/10/15 01:11:30;;;;;;;20.83;12.30;;;;;;;11.00;99.90;100670.25;5001441;28;20033;-77
2022/10/15 01:14:38;;;;;;;21.02;12.77;;;;;;;11.01;99.79;100671.94;5013731;28;20033;-77
2022/10/15 01:17:06;;;;;;;18.65;11.32;;;;;;;11.03;99.85;100664.94;5014551;28;20052;-77
2022/10/15 01:19:48;;;;;;;23.38;13.13;;;;;;;11.05;99.70;100664.88;5013472;28;20489;-77
2022/10/15 01:22:35;;;;;;;21.98;12.73;;;;;;;11.06;100.00;100664.00;5009181;28;20037;-77
2022/10/15 01:25:23;;;;;;;20.85;12.48;;;;;;;11.06;100.00;100649.25;5008849;28;20104;-77
2022/10/15 01:28:05;;;;;;;21.50;12.43;;;;;;;11.08;100.00;100647.44;4981091;28;20038;-77
2022/10/15 01:30:37;;;;;;;18.30;12.52;;;;;;;11.08;100.00;100642.25;5019327;28;20034;-77
2022/10/15 01:33:18;;;;;;;21.33;12.35;;;;;;;11.11;100.00;100635.19;5015014;28;20026;-77
2022/10/15 01:36:06;;;;;;;;;;;;;;;11.15;99.67;100642.03;5017384;28;20040;-77
2022/10/15 01:39:11;;;;;;;18.95;11.68;;;;;;;11.15;100.00;100636.81;4997050;28;19921;-77
2022/10/15 01:41:43;;;;;;;18.83;12.50;;;;;;;11.16;100.00;100631.59;5006887;28;20034;-78
2022/10/15 01:44:26;;;;;;;21.65;13.02;;;;;;;11.17;100.00;100635.03;5012111;28;20379;-77
2022/10/15 01:47:03;;;;;;;20.75;13.45;;;;;;;11.20;100.00;100632.31;5011582;28;20049;-78
2022/10/15 01:49:34;;;;;;;21.15;13.43;;;;;;;11.20;100.00;100634.94;5007531;28;20075;-77
2022/10/15 01:52:03;;;;;;;20.05;13.15;;;;;;;11.22;100.00;100639.19;5010726;28;20390;-77
2022/10/15 01:54:30;;;;;;;17.80;12.63;;;;;;;11.23;100.00;100635.66;5012924;28;20029;-77
2022/10/15 01:56:57;;;;;;;20.23;13.48;;;;;;;11.26;100.00;100633.88;5009799;28;20033;-77
2022/10/15 01:59:26;;;;;;;19.73;13.38;;;;;;;11.27;100.00;100627.78;5014325;28;20045;-77
2022/10/15 02:01:52;;;;;;;19.65;13.45;;;;;;;11.29;100.00;100628.56;5004674;28;20034;-77
2022/10/15 02:04:22;;;;;;;19.23;13.00;;;;;;;11.30;100.00;100625.06;5009070;28;20526;-77
2022/10/15 02:06:58;;;;;;;21.83;13.77;;;;;;;11.31;100.00;100627.63;4998473;28;20057;-78
2022/10/15 02:09:52;;;;;;;20.63;13.02;;;;;;;11.35;100.00;100624.03;5011553;28;20033;-77
2022/10/15 02:12:37;;;;;;;19.65;13.13;;;;;;;11.35;100.00;100623.19;4997808;28;20026;-78
2022/10/15 02:15:44;;;;;;;17.88;12.48;;;;;;;11.38;100.00;100623.91;5009875;28;20121;-77
2022/10/15 02:18:15;;;;;;;19.13;12.63;;;;;;;11.40;100.00;100621.25;5015335;28;20124;-78
2022/10/15 02:20:52;;;;;;;18.50;12.43;;;;;;;11.39;100.00;100615.22;5019268;28;20033;-77
2022/10/15 02:23:37;;;;;;;17.73;12.90;;;;;;;11.41;100.00;100609.94;5011099;28;20034;-77
2022/10/15 02:26:06;;;;;;;19.48;12.23;;;;;;;11.41;100.00;100606.50;5010407;28;20021;-77
2022/10/15 02:28:33;;;;;;;17.83;12.30;;;;;;;11.41;100.00;100602.13;5009477;28;20172;-78
2022/10/15 02:31:01;;;;;;;18.85;13.00;;;;;;;11.43;100.00;100602.94;5010636;28;20124;-77
2022/10/15 02:33:29;;;;;;;18.50;12.93;;;;;;;11.43;100.00;100602.94;5017300;28;20548;-77
2022/10/15 02:35:57;;;;;;;19.75;12.60;;;;;;;11.44;100.00;100598.59;5015418;28;20022;-77
2022/10/15 02:38:25;;;;;;;19.33;13.13;;;;;;;11.46;100.00;100604.56;5011117;28;20036;-77
2022/10/15 02:40:51;;;;;;;17.60;12.35;;;;;;;11.45;100.00;100595.03;5017471;28;20065;-77
2022/10/15 02:43:19;;;;;;;22.65;12.85;;;;;;;11.45;100.00;100584.63;5017345;28;20026;-78
2022/10/15 02:45:44;;;;;;;18.30;12.60;;;;;;;11.46;100.00;100586.34;5012959;28;20101;-78
2022/10/15 02:48:10;;;;;;;18.00;12.40;;;;;;;11.46;100.00;100586.34;5014790;28;20124;-77
2022/10/15 02:50:35;;;;;;;17.92;12.68;;;;;;;11.46;100.00;100581.13;5012927;28;20068;-77
2022/10/15 02:53:00;;;;;;;18.55;12.48;;;;;;;11.45;100.00;100577.69;5000925;28;20022;-77
2022/10/15 02:55:25;;;;;;;18.40;12.18;;;;;;;11.44;100.00;100570.75;5019681;28;20026;-77
2022/10/15 02:57:51;;;;;;;16.85;12.57;;;;;;;11.45;100.00;100569.00;5012309;28;20033;-77
2022/10/15 03:00:17;;;;;;;18.60;12.45;;;;;;;11.45;100.00;100571.59;5011472;28;20363;-77
2022/10/15 03:02:43;;;;;;;16.55;11.95;;;;;;;11.45;100.00;100566.41;5012331;28;20088;-77
2022/10/15 03:05:08;;;;;;;19.50;12.57;;;;;;;11.42;100.00;100567.34;5011777;28;20374;-77
2022/10/15 03:07:33;;;;;;;19.75;12.43;;;;;;;11.42;100.00;100561.31;5010736;28;20025;-77
2022/10/15 03:09:58;;;;;;;19.75;12.00;;;;;;;11.41;100.00;100557.84;5011469;28;20021;-78
2022/10/15 03:12:24;;;;;;;20.88;12.50;;;;;;;11.39;100.00;100555.31;5011276;28;20026;-78
2022/10/15 03:14:50;;;;;;;22.08;13.18;;;;;;;11.39;100.00;100552.69;5011875;28;20080;-77
2022/10/15 03:17:15;;;;;;;19.80;12.82;;;;;;;11.39;100.00;100552.69;5012431;28;20026;-77
2022/10/15 03:19:40;;;;;;;18.58;13.27;;;;;;;11.41;100.00;100559.59;5011183;28;20056;-78
2022/10/15 03:22:06;;;;;;;18.45;12.48;;;;;;;11.41;100.00;100551.78;5012220;28;20022;-77
2022/10/15 03:24:31;;;;;;;17.65;12.23;;;;;;;11.40;100.00;100556.13;5010612;28;20026;-77
2022/10/15 03:26:56;;;;;;;20.77;13.27;;;;;;;11.40;100.00;100553.53;4991597;28;20034;-78
2022/10/15 03:29:22;;;;;;;17.50;12.95;;;;;;;11.42;100.00;100556.09;5007777;28;20030;-78
2022/10/15 03:31:47;;;;;;;18.63;12.85;;;;;;;11.43;100.00;100557.81;5010570;28;20068;-77
2022/10/15 03:34:13;;;;;;;18.13;12.85;;;;;;;11.43;100.00;100557.81;5011492;28;20049;-77
2022/10/15 03:36:38;;;;;;;19.63;12.75;;;;;;;11.45;100.00;100555.97;5014005;28;20025;-78
2022/10/15 03:39:03;;;;;;;19.08;12.63;;;;;;;11.44;100.00;100564.72;5009303;28;20029;-77
2022/10/15 03:41:28;;;;;;;18.63;12.65;;;;;;;11.46;100.00;100557.69;5005015;28;20041;-77
2022/10/15 03:43:54;;;;;;;18.35;12.63;;;;;;;11.47;100.00;100557.66;5015215;28;20497;-78
2022/10/15 03:46:19;;;;;;;19.13;12.45;;;;;;;11.46;100.00;100550.72;5014553;28;20081;-77
2022/10/15 03:48:48;;;;;;;19.70;13.13;;;;;;;11.49;100.00;100552.38;5016965;28;20425;-77
2022/10/15 03:51:13;;;;;;;17.17;12.30;;;;;;;11.49;100.00;100547.16;5012090;28;20072;-78
2022/10/15 03:53:39;;;;;;;17.63;12.85;;;;;;;11.49;100.00;100542.81;5010343;28;20087;-77
2022/10/15 03:56:05;;;;;;;19.27;13.20;;;;;;;11.51;100.00;100558.38;5015570;28;20025;-78
2022/10/15 03:58:30;;;;;;;20.65;14.10;;;;;;;11.51;100.00;100553.16;5017674;28;20049;-78
2022/10/15 04:00:56;;;;;;;23.42;13.82;;;;;;;11.52;100.00;100549.66;5014776;28;20038;-77
2022/10/15 04:03:21;;;;;;;19.20;13.38;;;;;;;11.54;100.00;100545.25;5016147;28;20108;-78
2022/10/15 04:05:50;;;;;;;20.35;13.52;;;;;;;11.54;100.00;100540.03;5013897;28;20034;-78
2022/10/15 04:08:16;;;;;;;19.63;13.20;;;;;;;11.54;100.00;100534.84;5016282;28;20040;-78
2022/10/15 04:10:41;;;;;;;20.70;13.63;;;;;;;11.53;100.00;100530.53;5013594;28;20030;-77
2022/10/15 04:13:06;;;;;;;20.42;13.50;;;;;;;11.55;100.00;100533.94;5011913;28;20033;-78
2022/10/15 04:15:32;;;;;;;20.75;14.10;;;;;;;11.56;100.00;100537.38;5011511;28;20524;-78
2022/10/15 04:17:57;;;;;;;22.33;12.98;;;;;;;11.56;100.00;100538.25;5015584;28;20036;-78
2022/10/15 04:20:22;;;;;;;21.90;14.07;;;;;;;11.57;100.00;100539.94;5013829;28;20029;-77
2022/10/15 04:22:48;;;;;;;22.85;14.60;;;;;;;11.57;100.00;100539.94;5012327;28;20499;-77
2022/10/15 04:25:13;;;;;;;21.13;13.75;;;;;;;11.58;100.00;100546.84;5018196;28;20519;-78
2022/10/15 04:27:38;;;;;;;19.88;13.20;;;;;;;11.58;100.00;100552.06;5015889;28;20484;-78
2022/10/15 04:30:04;;;;;;;22.27;13.35;;;;;;;11.58;100.00;100554.69;5014490;28;20091;-78
2022/10/15 04:32:30;;;;;;;21.25;13.35;;;;;;;11.59;100.00;100552.91;5015436;28;20386;-77
2022/10/15 04:34:55;;;;;;;24.38;14.48;;;;;;;11.60;100.00;100563.28;5014588;28;20036;-77
2022/10/15 04:37:20;;;;;;;23.90;14.05;;;;;;;11.60;100.00;100565.03;5009041;28;20112;-77
2022/10/15 04:39:46;;;;;;;23.10;13.85;;;;;;;11.60;100.00;100563.28;5006649;28;20041;-78
2022/10/15 04:42:11;;;;;;;25.83;14.68;;;;;;;11.61;100.00;100557.19;5012573;28;20075;-77
2022/10/15 04:44:36;;;;;;;25.08;14.82;;;;;;;11.63;100.00;100557.94;5012664;28;20033;-77
2022/10/15 04:47:01;;;;;;;26.48;15.43;;;;;;;11.65;100.00;100543.13;5010414;28;20042;-77
2022/10/15 04:49:27;;;;;;;26.98;15.50;;;;;;;11.66;100.00;100550.03;4994188;28;20038;-78
2022/10/15 04:51:52;;;;;;;29.08;14.73;;;;;;;11.68;100.00;100550.84;5011542;28;20045;-78
2022/10/15 04:54:17;;;;;;;25.17;14.77;;;;;;;11.70;100.00;100548.16;5012451;28;20469;-78
2022/10/15 04:56:43;;;;;;;26.02;15.25;;;;;;;11.72;100.00;100550.72;4994435;28;20056;-78
2022/10/15 04:59:08;;;;;;;26.02;15.45;;;;;;;11.73;100.00;100550.66;5012351;28;20362;-78
2022/10/15 05:01:34;;;;;;;27.02;15.90;;;;;;;11.74;100.00;100541.94;5012031;28;20034;-77
2022/10/15 05:03:59;;;;;;;25.25;15.68;;;;;;;11.76;100.00;100545.34;5011812;28;20038;-78
2022/10/15 05:06:24;;;;;;;27.85;15.55;;;;;;;11.78;100.00;100550.53;5012102;28;20057;-78
2022/10/15 05:08:50;;;;;;;27.25;16.60;;;;;;;11.80;100.00;100551.28;5012798;28;20398;-77
2022/10/15 05:11:18;;;;;;;29.08;16.02;;;;;;;11.80;100.00;100553.91;5012430;28;20476;-77
2022/10/15 05:13:44;;;;;;;30.23;16.83;;;;;;;11.81;100.00;100553.88;5012074;28;20505;-78
2022/10/15 05:16:12;;;;;;;31.90;16.27;;;;;;;11.82;100.00;100546.88;5009435;28;20092;-78
2022/10/15 05:18:39;;;;;;;29.70;16.85;;;;;;;11.83;100.00;100549.44;5011908;28;20029;-78
2022/10/15 05:21:05;;;;;;;32.03;17.23;;;;;;;11.85;100.00;100552.00;5012345;28;20029;-78
2022/10/15 05:23:30;;;;;;;28.63;16.67;;;;;;;11.86;100.00;100550.25;5008128;28;20064;-77
2022/10/15 05:25:59;;;;;;;28.55;16.73;;;;;;;11.86;100.00;100550.25;5011201;28;20037;-77
2022/10/15 05:28:25;;;;;;;30.83;17.00;;;;;;;11.86;100.00;100556.28;5012808;28;20385;-78
2022/10/15 05:30:50;;;;;;;28.73;16.55;;;;;;;11.88;100.00;100562.31;5015275;28;20034;-78
2022/10/15 05:33:15;;;;;;;28.60;16.27;;;;;;;11.89;100.00;100557.94;5013104;28;20393;-77
2022/10/15 05:35:40;;;;;;;29.08;16.27;;;;;;;11.89;100.00;100558.81;5013277;28;20397;-78
2022/10/15 05:38:06;;;;;;;28.27;16.27;;;;;;;11.90;100.00;100555.28;5013474;28;20091;-77
2022/10/15 05:40:31;;;;;;;26.08;15.30;;;;;;;11.90;100.00;100557.91;5011609;28;20030;-77
2022/10/15 05:42:57;;;;;;;25.85;15.40;;;;;;;11.92;100.00;100565.66;5012683;28;20037;-78
2022/10/15 05:45:22;;;;;;;27.83;15.27;;;;;;;11.94;100.00;100558.63;5012830;28;20101;-77
2022/10/15 05:47:47;;;;;;;29.02;15.95;;;;;;;11.94;100.00;100553.41;5010425;28;20049;-77
2022/10/15 05:50:13;;;;;;;26.08;15.70;;;;;;;11.94;100.00;100556.88;4994876;28;20021;-78
2022/10/15 05:52:38;;;;;;;26.63;15.23;;;;;;;11.96;100.00;100562.88;5012102;28;20048;-77
2022/10/15 05:55:04;;;;;;;28.70;15.60;;;;;;;11.97;100.00;100558.53;5018838;28;20045;-77
2022/10/15 05:57:29;;;;;;;29.13;16.58;;;;;;;11.96;100.00;100557.66;5010228;28;20025;-78
2022/10/15 05:59:54;;;;;;;28.60;16.67;;;;;;;11.97;100.00;100556.75;5013155;28;20029;-77
2022/10/15 06:02:20;;;;;;;34.15;15.73;;;;;;;11.99;100.00;100554.13;5009303;28;20018;-77
2022/10/15 06:04:46;;;;;;;29.13;15.15;;;;;;;11.99;100.00;100549.75;5009606;28;20109;-77
2022/10/15 06:07:11;;;;;;;26.13;15.70;;;;;;;12.01;100.00;100549.72;5010395;28;20040;-78
2022/10/15 06:09:36;;;;;;;27.45;16.05;;;;;;;12.02;100.00;100550.56;5008164;28;20029;-77
2022/10/15 06:12:02;;;;;;;27.70;16.42;;;;;;;12.02;100.00;100553.16;5006600;28;20442;-78
2022/10/15 06:14:29;;;;;;;26.30;15.63;;;;;;;12.01;100.00;100554.06;5010543;28;20025;-77
2022/10/15 06:16:54;;;;;;;27.58;16.00;;;;;;;11.99;100.00;100552.38;4993069;28;20108;-77
2022/10/15 06:19:19;;;;;;;26.95;15.48;;;;;;;11.99;100.00;100554.13;5009025;28;20454;-77
2022/10/15 06:21:45;;;;;;;26.10;15.98;;;;;;;12.01;100.00;100552.34;5008897;28;20092;-78
2022/10/15 06:24:10;;;;;;;26.40;14.82;;;;;;;12.03;100.00;100554.88;5005460;28;20018;-77
2022/10/15 06:26:36;;;;;;;25.15;14.60;;;;;;;12.02;100.00;100550.56;5011066;28;20029;-78
2022/10/15 06:29:01;;;;;;;25.63;15.30;;;;;;;12.03;100.00;100557.47;5012235;28;20034;-78
2022/10/15 06:31:26;;;;;;;26.35;15.32;;;;;;;12.04;100.00;100546.16;5010904;28;20105;-78
2022/10/15 06:33:51;;;;;;;24.95;14.88;;;;;;;12.05;100.00;100553.91;5010394;28;20539;-77
2022/10/15 06:36:17;;;;;;;27.98;15.93;;;;;;;12.07;100.00;100553.84;5010672;28;20485;-77
2022/10/15 06:38:43;;;;;;;26.88;15.45;;;;;;;12.08;100.00;100552.94;5009095;28;20037;-78
2022/10/15 06:41:08;;;;;;;26.63;14.80;;;;;;;12.10;100.00;100565.00;5008972;28;20022;-78
2022/10/15 06:43:34;;;;;;;27.45;16.08;;;;;;;12.10;100.00;100562.41;5011220;28;20374;-77
2022/10/15 06:46:00;;;;;;;26.73;15.18;;;;;;;12.12;100.00;100557.16;5010929;28;20022;-77
2022/10/15 06:48:25;;;;;;;24.48;15.23;;;;;;;12.13;100.00;100558.81;5010653;28;20026;-77
2022/10/15 06:50:50;;;;;;;26.30;14.77;;;;;;;12.14;100.00;100555.31;5006363;28;20129;-77
2022/10/15 06:53:16;;;;;;;24.30;14.05;;;;;;;12.16;100.00;100557.88;5010282;28;20021;-77
2022/10/15 06:55:42;;;;;;;23.25;13.70;;;;;;;12.17;100.00;100552.59;5010642;28;20112;-78
2022/10/15 06:58:08;;;;;;;21.85;13.02;;;;;;;12.18;100.00;100551.69;5008284;28;20069;-77
2022/10/15 07:00:33;;;;;;;23.50;13.98;;;;;;;12.19;100.00;100561.22;5010549;28;20049;-78
2022/10/15 07:03:03;;;;;;;22.42;13.20;;;;;;;12.19;100.00;100548.19;5007598;28;20444;-78
2022/10/15 07:05:29;;;;;;;23.42;13.23;;;;;;;12.21;100.00;100553.34;5008054;28;20036;-78
2022/10/15 07:07:56;;;;;;;21.63;12.25;;;;;;;12.23;100.00;100552.38;5008966;28;20034;-78
2022/10/15 07:10:22;;;;;;;23.25;13.23;;;;;;;12.24;100.00;100550.63;5015197;28;20473;-78
2022/10/15 07:12:47;;;;;;;23.83;12.93;;;;;;;12.26;100.00;100548.78;5011572;28;20482;-78
2022/10/15 07:15:13;;;;;;;21.48;12.50;;;;;;;12.28;100.00;100563.50;4992156;28;20026;-78
2022/10/15 07:17:38;;;;;;;23.23;12.48;;;;;;;12.29;100.00;100560.00;4994855;28;20026;-78
2022/10/15 07:20:05;;;;;;;21.88;12.68;;;;;;;12.32;100.00;100563.38;5014354;28;20030;-78
2022/10/15 07:22:30;;;;;;;22.10;12.80;;;;;;;12.33;100.00;100552.88;4995987;28;20461;-78
2022/10/15 07:24:55;;;;;;;22.02;12.88;;;;;;;12.35;100.00;100552.81;5013335;28;20061;-77
2022/10/15 07:27:20;;;;;;;22.35;12.45;;;;;;;12.35;100.00;100563.25;5014414;28;20104;-77
2022/10/15 07:29:46;;;;;;;20.98;12.40;;;;;;;12.35;100.00;100558.91;5010836;28;20022;-77
2022/10/15 07:32:11;;;;;;;20.55;12.52;;;;;;;12.36;100.00;100554.53;5014301;28;20029;-78
2022/10/15 07:34:36;;;;;;;23.02;12.25;;;;;;;12.36;100.00;100558.00;5014279;28;20088;-77
2022/10/15 07:37:02;;;;;;;22.55;12.27;;;;;;;12.38;100.00;100552.72;5013674;28;20389;-77
2022/10/15 07:39:27;;;;;;;20.52;12.43;;;;;;;12.40;100.00;100545.69;5010274;28;20036;-77
2022/10/15 07:41:52;;;;;;;20.27;11.85;;;;;;;12.43;100.00;100538.56;5012912;28;20426;-77
2022/10/15 07:44:18;;;;;;;22.40;11.75;;;;;;;12.50;100.00;100539.19;5009357;28;20033;-78
2022/10/15 07:46:43;;;;;;;19.92;11.70;;;;;;;12.52;100.00;100519.09;5015982;28;20045;-78
2022/10/15 07:49:10;;;;;;;18.90;11.63;;;;;;;12.57;100.00;100521.53;4995875;28;20182;-77
2022/10/15 07:51:35;;;;;;;19.13;11.35;;;;;;;12.58;100.00;100520.63;4998728;28;20269;-77
2022/10/15 07:54:00;;;;;;;19.52;10.73;;;;;;;12.60;100.00;100527.50;5012016;28;20108;-77
2022/10/15 07:56:26;;;;;;;18.58;11.75;;;;;;;12.62;100.00;100518.75;5009371;28;20481;-77
2022/10/15 07:58:51;;;;;;;18.80;11.48;;;;;;;12.59;100.00;100527.53;5011941;28;20040;-77
2022/10/15 08:01:18;;;;;;;19.05;11.20;;;;;;;12.58;100.00;100528.44;5009426;28;20021;-77
2022/10/15 08:03:43;;;;;;;20.38;10.98;;;;;;;12.59;100.00;100531.00;4998696;28;20041;-77
2022/10/15 08:06:09;;;;;;;19.02;11.43;;;;;;;12.63;100.00;100538.72;5013695;28;20385;-78
2022/10/15 08:08:35;;;;;;;18.40;11.05;;;;;;;12.67;100.00;100522.00;5007519;28;20034;-77
2022/10/15 08:11:12;;;;;;;19.85;11.25;;;;;;;12.74;100.00;100518.25;5007973;28;20030;-78
2022/10/15 08:13:41;;;;;;;19.73;11.40;;;;;;;12.80;100.00;100519.78;5004633;28;20083;-77
2022/10/15 08:16:07;;;;;;;16.27;9.88;;;;;;;12.87;100.00;100518.63;5007451;28;20033;-77
2022/10/15 08:18:33;;;;;;;18.70;10.63;;;;;;;12.88;100.00;100515.94;5008085;28;20050;-77
2022/10/15 08:20:59;;;;;;;18.67;10.68;;;;;;;12.93;100.00;100513.13;5001530;28;20117;-78
2022/10/15 08:23:25;;;;;;;17.98;10.10;;;;;;;12.97;100.00;100519.09;5006386;28;20108;-77
2022/10/15 08:25:50;;;;;;;17.83;10.20;;;;;;;12.99;100.00;100512.03;5005419;28;20541;-77
2022/10/15 08:28:15;;;;;;;14.70;9.15;;;;;;;13.05;100.00;100511.78;4990662;28;20072;-77
2022/10/15 08:30:40;;;;;;;16.00;9.02;;;;;;;13.10;99.70;100506.38;5005790;28;20057;-77
2022/10/15 08:33:06;;;;;;;15.43;8.70;;;;;;;13.14;99.36;100505.31;5004137;28;20614;-77
2022/10/15 08:35:35;;;;;;;13.68;8.40;;;;;;;13.21;99.36;100512.00;5006627;28;20066;-77
2022/10/15 08:38:01;;;;;;;14.85;8.85;;;;;;;13.30;99.67;100508.16;4987023;28;20056;-77
2022/10/15 08:40:28;;;;;;;14.00;8.38;;;;;;;13.36;99.62;100505.25;5004600;28;20123;-77
2022/10/15 08:42:54;;;;;;;14.27;7.85;;;;;;;13.42;99.18;100504.19;5004204;28;20515;-77
2022/10/15 08:45:33;;;;;;;13.90;7.70;;;;;;;13.44;99.00;100492.75;4989676;28;20038;-77
2022/10/15 08:48:06;;;;;;;12.68;7.93;;;;;;;13.49;98.66;100497.78;5006970;28;20069;-76
2022/10/15 08:50:41;;;;;;;14.45;7.65;;;;;;;13.54;98.54;100492.34;5003923;28;20041;-76
2022/10/15 08:53:13;;;;;;;11.82;7.03;;;;;;;13.57;98.17;100494.84;5000059;28;20038;-77
2022/10/15 08:55:42;;;;;;;11.68;7.15;;;;;;;13.61;98.11;100494.63;5002793;28;20065;-77
2022/10/15 08:58:13;;;;;;;11.60;6.85;;;;;;;13.63;97.59;100491.97;5005185;28;20029;-76
2022/10/15 09:00:48;;;;;;;10.55;6.68;;;;;;;13.65;97.26;100485.75;5009594;28;20026;-77
2022/10/15 09:03:28;;;;;;;10.40;6.20;;;;;;;13.68;96.93;100484.75;4988328;28;20056;-77
2022/10/15 09:06:12;;;;;;;10.02;6.15;;;;;;;13.70;96.92;100477.69;5006693;28;20040;-77
2022/10/15 09:08:55;;;;;;;10.20;6.22;;;;;;;13.74;96.93;100462.72;5005951;28;20426;-77
2022/10/15 09:11:29;;;;;;;10.60;6.13;;;;;;;13.76;96.28;100476.56;5004735;28;20038;-77
2022/10/15 09:13:56;;;;;;;10.18;5.75;;;;;;;13.76;96.19;100472.19;5005990;28;20044;-77
2022/10/15 09:16:26;;;;;;;10.93;6.13;;;;;;;13.79;96.21;100465.97;5006060;28;20043;-77
2022/10/15 09:18:53;;;;;;;9.90;6.18;;;;;;;13.80;95.87;100465.03;5005652;28;20432;-77
2022/10/15 09:21:24;;;;;;;11.45;6.45;;;;;;;13.80;95.83;100465.03;5008394;28;20053;-76
2022/10/15 09:23:50;;;;;;;9.80;5.63;;;;;;;13.81;95.93;100459.78;5005727;28;20033;-77
2022/10/15 09:26:47;;;;;;;9.38;5.75;;;;;;;13.81;96.19;100457.16;5001949;28;20061;-77
2022/10/15 09:29:23;;;;;;;11.07;5.63;;;;;;;13.83;95.96;100451.00;5002950;28;20029;-77
2022/10/15 09:31:55;;;;;;;9.50;5.50;;;;;;;13.84;95.88;100455.28;5003025;28;20107;-77
2022/10/15 09:34:28;;;;;;;8.95;5.60;;;;;;;13.82;96.10;100458.00;5003538;28;20084;-78
2022/10/15 09:37:06;;;;;;;11.80;5.78;;;;;;;13.84;96.13;100452.66;4984542;28;20072;-77
2022/10/15 09:39:46;;;;;;;8.82;5.28;;;;;;;13.87;96.44;100452.53;4997793;28;20121;-77
2022/10/15 09:42:32;;;;;;;10.30;5.57;;;;;;;13.90;96.72;100445.44;5000583;28;20033;-77
2022/10/15 09:45:01;;;;;;;11.10;5.05;;;;;;;13.93;96.24;100441.81;4998491;28;20040;-77
2022/10/15 09:47:34;;;;;;;8.50;5.13;;;;;;;13.94;95.78;100443.50;5003756;28;20049;-78
2022/10/15 09:50:00;;;;;;;8.30;5.35;;;;;;;13.92;95.98;100445.34;5003938;28;20033;-77
2022/10/15 09:52:46;;;;;;;8.57;5.45;;;;;;;13.92;96.63;100437.50;5000529;28;20033;-77
2022/10/15 09:55:41;;;;;;;8.45;5.28;;;;;;;13.95;97.01;100446.03;4988414;28;20088;-77
2022/10/15 09:58:14;;;;;;;8.45;5.18;;;;;;;13.98;97.05;100436.34;5002897;28;20116;-77
2022/10/15 10:00:54;;;;;;;8.98;5.40;;;;;;;13.99;97.44;100438.91;5000901;28;20170;-77
2022/10/15 10:03:23;;;;;;;8.40;4.80;;;;;;;13.98;97.49;100437.22;5003960;28;20028;-77
2022/10/15 10:05:49;;;;;;;6.90;4.63;;;;;;;13.95;97.86;100426.91;5005141;28;20031;-77
2022/10/15 10:08:21;;;;;;;9.32;4.93;;;;;;;13.92;98.33;100425.25;5004536;28;20033;-77
2022/10/15 10:10:59;;;;;;;8.60;4.97;;;;;;;13.91;98.51;100425.34;5004707;28;20045;-78
2022/10/15 10:13:31;;;;;;;6.78;4.57;;;;;;;13.90;98.74;100426.25;5004198;28;20038;-78
2022/10/15 10:16:05;;;;;;;6.78;4.22;;;;;;;13.90;99.21;100423.63;5003673;28;20370;-78
2022/10/15 10:18:31;;;;;;;8.55;4.80;;;;;;;13.91;99.22;100427.94;5005451;28;20124;-77
2022/10/15 10:21:02;;;;;;;8.02;4.50;;;;;;;13.93;99.50;100421.72;5003665;28;20457;-77
2022/10/15 10:23:33;;;;;;;7.30;4.68;;;;;;;13.96;99.78;100415.53;5003677;28;20030;-77
2022/10/15 10:25:59;;;;;;;;;;;;;;;13.99;98.67;100420.63;5004545;28;20034;-77
2022/10/15 10:28:45;;;;;;;9.95;4.60;;;;;;;13.96;99.66;100421.59;4999596;28;19924;-77
2022/10/15 10:31:11;;;;;;;8.88;4.60;;;;;;;13.98;99.71;100412.81;5004106;28;20064;-77
2022/10/15 10:33:46;;;;;;;6.78;4.38;;;;;;;14.01;100.00;100407.44;5004720;28;20468;-77
2022/10/15 10:36:29;;;;;;;7.10;4.40;;;;;;;14.04;100.00;100415.16;5003712;28;20634;-77
2022/10/15 10:39:00;;;;;;;7.40;4.25;;;;;;;14.06;100.00;100415.94;4986358;28;20029;-77
2022/10/15 10:41:49;;;;;;;7.57;4.30;;;;;;;14.09;100.00;100414.00;4999876;28;20085;-78
2022/10/15 10:44:45;;;;;;;7.75;4.45;;;;;;;14.10;100.00;100420.94;5002712;28;20041;-78
2022/10/15 10:47:22;;;;;;;6.10;3.95;;;;;;;14.13;100.00;100413.88;5003535;28;20052;-78
2022/10/15 10:49:56;;;;;;;5.80;3.83;;;;;;;14.11;100.00;100409.56;5006073;28;20246;-77
2022/10/15 10:52:31;;;;;;;6.15;3.40;;;;;;;14.11;100.00;100420.03;5004241;28;20034;-78
2022/10/15 10:55:02;;;;;;;5.47;3.40;;;;;;;14.11;100.00;100425.25;5003787;28;20026;-78
2022/10/15 10:57:50;;;;;;;7.40;3.17;;;;;;;14.14;100.00;100426.03;5004310;28;20037;-78
2022/10/15 11:00:28;;;;;;;4.15;2.70;;;;;;;14.14;100.00;100418.19;5003401;28;20057;-77
2022/10/15 11:02:54;;;;;;;4.65;3.00;;;;;;;14.14;100.00;100416.41;5004195;28;20038;-78
2022/10/15 11:05:26;;;;;;;4.10;2.97;;;;;;;14.20;100.00;100415.25;5004082;28;20118;-78
2022/10/15 11:08:03;;;;;;;3.45;2.47;;;;;;;14.24;100.00;100409.84;5005664;28;20038;-78
2022/10/15 11:10:33;;;;;;;3.83;2.28;;;;;;;14.28;100.00;100400.06;5007403;28;20033;-78
2022/10/15 11:13:21;;;;;;;3.75;2.13;;;;;;;14.32;100.00;100401.59;5007645;28;20029;-78
2022/10/15 11:16:03;;;;;;;3.88;1.90;;;;;;;14.36;100.00;100405.75;5004918;28;20074;-78